Time;durP1;ratioP1;P1;durP2;ratioP2;P2;SDS_P1;SDS_P2;PMS_P1;PMS_P2;Temp;Humidity;BMP_temperature;BMP_pressure;BME280_temperature;BME280_humidity;BME280_pressure;Samples;Min_cycle;Max_cycle;Signal;HPM_P1;HPM_P2
2021/05/17 00:00:04;;;;;;;;;;;21.30;41.90;;;;;;457288;260;992;-75
2021/05/17 00:02:04;;;;;;;;;;;21.40;41.90;;;;;;457238;259;1441;-75
2021/05/17 00:04:07;;;;;;;;;;;21.30;41.70;;;;;;457319;260;1126;-75
2021/05/17 00:06:07;;;;;;;;;;;21.40;41.80;;;;;;457316;260;1475;-75
2021/05/17 00:08:08;;;;;;;;;;;21.40;41.80;;;;;;457385;260;2191;-75
2021/05/17 00:10:09;;;;;;;;;;;21.30;41.80;;;;;;457370;260;1188;-75
2021/05/17 00:12:11;;;;;;;;;;;21.40;41.80;;;;;;457384;260;1035;-75
2021/05/17 00:14:12;;;;;;;;;;;21.50;41.70;;;;;;457482;260;1000;-75
2021/05/17 00:16:13;;;;;;;;;;;21.40;41.70;;;;;;457366;260;1123;-75
2021/05/17 00:18:14;;;;;;;;;;;21.40;41.60;;;;;;457421;260;1050;-75
2021/05/17 00:20:16;;;;;;;;;;;21.40;41.60;;;;;;457379;260;1034;-75
2021/05/17 00:22:17;;;;;;;;;;;21.30;41.70;;;;;;457331;260;1228;-75
2021/05/17 00:24:18;;;;;;;;;;;21.40;41.70;;;;;;457364;260;1197;-75
2021/05/17 00:26:20;;;;;;;;;;;21.40;41.60;;;;;;457332;260;1209;-75
2021/05/17 00:28:21;;;;;;;;;;;21.40;41.60;;;;;;457311;260;2155;-75
2021/05/17 00:30:22;;;;;;;;;;;21.30;41.50;;;;;;457304;260;995;-75
2021/05/17 00:32:24;;;;;;;;;;;21.30;41.50;;;;;;457347;260;1302;-75
2021/05/17 00:34:25;;;;;;;;;;;21.30;41.60;;;;;;457420;260;1027;-75
2021/05/17 00:36:26;;;;;;;;;;;21.40;41.70;;;;;;457409;260;1359;-75
2021/05/17 00:38:28;;;;;;;;;;;21.30;41.50;;;;;;457397;260;1206;-75
2021/05/17 00:40:29;;;;;;;;;;;21.40;41.40;;;;;;457430;260;1158;-75
2021/05/17 00:42:30;;;;;;;;;;;21.30;41.40;;;;;;457430;260;1170;-75
2021/05/17 00:44:31;;;;;;;;;;;21.30;41.40;;;;;;457382;260;1084;-75
2021/05/17 00:46:33;;;;;;;;;;;21.30;41.30;;;;;;457440;260;1186;-75
2021/05/17 00:48:34;;;;;;;;;;;21.30;41.30;;;;;;457412;260;2151;-75
2021/05/17 00:50:35;;;;;;;;;;;21.30;41.30;;;;;;457305;260;1335;-75
2021/05/17 00:52:37;;;;;;;;;;;21.30;41.30;;;;;;457408;260;1221;-75
2021/05/17 00:54:38;;;;;;;;;;;21.30;41.30;;;;;;457322;260;1170;-75
2021/05/17 00:56:40;;;;;;;;;;;21.30;41.30;;;;;;457283;260;1213;-75
2021/05/17 00:58:41;;;;;;;;;;;21.30;41.30;;;;;;457292;260;1491;-75
2021/05/17 01:00:42;;;;;;;;;;;21.30;41.20;;;;;;457338;260;993;-75
2021/05/17 01:02:44;;;;;;;;;;;21.20;41.20;;;;;;457398;260;1082;-75
2021/05/17 01:04:45;;;;;;;;;;;21.20;41.20;;;;;;457416;260;1262;-75
2021/05/17 01:06:46;;;;;;;;;;;21.30;41.10;;;;;;457358;260;1215;-75
2021/05/17 01:08:48;;;;;;;;;;;21.30;41.10;;;;;;457378;260;2211;-75
2021/05/17 01:10:49;;;;;;;;;;;21.30;41.10;;;;;;457289;260;1180;-75
2021/05/17 01:12:50;;;;;;;;;;;21.30;41.10;;;;;;457480;260;1074;-75
2021/05/17 01:14:52;;;;;;;;;;;21.50;40.80;;;;;;457419;260;1067;-75
2021/05/17 01:16:54;;;;;;;;;;;21.30;41.00;;;;;;457337;260;1194;-75
2021/05/17 01:18:55;;;;;;;;;;;21.30;40.90;;;;;;457364;260;1090;-75
2021/05/17 01:20:57;;;;;;;;;;;21.40;40.90;;;;;;457321;260;1275;-75
2021/05/17 01:23:01;;;;;;;;;;;21.30;41.00;;;;;;457370;260;1338;-75
2021/05/17 01:25:00;;;;;;;;;;;21.30;41.00;;;;;;457209;260;1394;-75
2021/05/17 01:27:01;;;;;;;;;;;21.30;41.10;;;;;;457269;260;1236;-75
2021/05/17 01:29:03;;;;;;;;;;;21.30;41.00;;;;;;457432;260;2214;-75
2021/05/17 01:31:04;;;;;;;;;;;21.20;41.10;;;;;;457367;260;1005;-75
2021/05/17 01:33:05;;;;;;;;;;;21.30;41.00;;;;;;457389;260;1006;-75
2021/05/17 01:35:07;;;;;;;;;;;21.30;41.00;;;;;;457421;260;1008;-75
2021/05/17 01:37:08;;;;;;;;;;;21.30;40.90;;;;;;457383;260;981;-75
2021/05/17 01:39:09;;;;;;;;;;;21.30;41.00;;;;;;457366;260;1002;-75
2021/05/17 01:41:11;;;;;;;;;;;21.30;40.90;;;;;;457325;260;1209;-75
2021/05/17 01:43:12;;;;;;;;;;;21.30;41.00;;;;;;457299;260;1108;-75
2021/05/17 01:45:13;;;;;;;;;;;21.30;41.00;;;;;;457295;260;1022;-75
2021/05/17 01:47:15;;;;;;;;;;;21.30;40.90;;;;;;457269;260;1075;-75
2021/05/17 01:49:16;;;;;;;;;;;21.30;40.80;;;;;;457257;260;2245;-75
2021/05/17 01:51:17;;;;;;;;;;;21.30;40.80;;;;;;457241;260;1133;-75
2021/05/17 01:53:18;;;;;;;;;;;21.30;40.90;;;;;;457432;260;1028;-75
2021/05/17 01:55:20;;;;;;;;;;;21.30;40.80;;;;;;457401;260;1062;-75
2021/05/17 01:57:21;;;;;;;;;;;21.30;40.90;;;;;;457369;260;1219;-75
2021/05/17 01:59:22;;;;;;;;;;;21.30;40.90;;;;;;457403;260;1063;-75
2021/05/17 02:01:25;;;;;;;;;;;21.30;40.90;;;;;;457371;255;1230;-75
2021/05/17 02:03:25;;;;;;;;;;;21.20;40.90;;;;;;457336;260;1347;-75
2021/05/17 02:05:26;;;;;;;;;;;21.30;40.80;;;;;;457381;260;1063;-75
2021/05/17 02:07:28;;;;;;;;;;;21.20;40.80;;;;;;457319;260;1153;-75
2021/05/17 02:09:29;;;;;;;;;;;21.40;40.80;;;;;;457349;260;2163;-75
2021/05/17 02:11:30;;;;;;;;;;;21.30;40.80;;;;;;457284;260;1225;-75
2021/05/17 02:13:31;;;;;;;;;;;21.30;40.80;;;;;;457333;260;1049;-75
2021/05/17 02:15:33;;;;;;;;;;;21.40;40.60;;;;;;457311;260;1121;-75
2021/05/17 02:17:34;;;;;;;;;;;21.30;40.70;;;;;;457252;260;1231;-75
2021/05/17 02:19:35;;;;;;;;;;;21.30;40.80;;;;;;457347;260;1088;-75
2021/05/17 02:21:37;;;;;;;;;;;21.30;40.90;;;;;;457237;257;1230;-75
2021/05/17 02:23:38;;;;;;;;;;;21.30;40.90;;;;;;457456;260;1003;-75
2021/05/17 02:25:39;;;;;;;;;;;21.30;40.70;;;;;;457397;260;1246;-75
2021/05/17 02:27:41;;;;;;;;;;;21.30;40.80;;;;;;457383;260;1212;-75
2021/05/17 02:29:42;;;;;;;;;;;21.30;40.80;;;;;;457438;260;2202;-75
2021/05/17 02:31:43;;;;;;;;;;;21.30;40.80;;;;;;457365;260;1216;-75
2021/05/17 02:33:44;;;;;;;;;;;21.30;40.70;;;;;;457427;260;996;-75
2021/05/17 02:35:46;;;;;;;;;;;21.30;40.80;;;;;;457273;260;1200;-75
2021/05/17 02:37:47;;;;;;;;;;;21.30;40.80;;;;;;457313;260;1187;-75
2021/05/17 02:39:48;;;;;;;;;;;21.30;40.80;;;;;;457340;260;1237;-75
2021/05/17 02:41:50;;;;;;;;;;;21.30;40.80;;;;;;457281;260;1258;-75
2021/05/17 02:43:51;;;;;;;;;;;21.30;40.80;;;;;;457322;260;1013;-75
2021/05/17 02:45:52;;;;;;;;;;;21.30;40.80;;;;;;457311;260;1224;-75
2021/05/17 02:47:54;;;;;;;;;;;21.30;40.70;;;;;;457382;260;1124;-75
2021/05/17 02:49:55;;;;;;;;;;;21.30;40.70;;;;;;457438;260;2210;-75
2021/05/17 02:51:56;;;;;;;;;;;21.30;40.80;;;;;;457326;260;1217;-75
2021/05/17 02:53:58;;;;;;;;;;;21.30;40.70;;;;;;457449;260;1109;-75
2021/05/17 02:55:59;;;;;;;;;;;21.30;40.80;;;;;;457403;260;1205;-75
2021/05/17 02:58:00;;;;;;;;;;;21.30;40.80;;;;;;457399;260;1543;-75
2021/05/17 03:00:02;;;;;;;;;;;21.30;40.80;;;;;;457456;260;976;-75
2021/05/17 03:02:03;;;;;;;;;;;21.40;40.70;;;;;;457373;260;1060;-75
2021/05/17 03:04:05;;;;;;;;;;;21.30;40.60;;;;;;457315;260;990;-75
2021/05/17 03:06:06;;;;;;;;;;;21.30;40.70;;;;;;457359;260;1060;-75
2021/05/17 03:08:07;;;;;;;;;;;21.30;40.80;;;;;;457401;260;994;-75
2021/05/17 03:10:08;;;;;;;;;;;21.20;41.00;;;;;;457301;260;2206;-75
2021/05/17 03:12:10;;;;;;;;;;;21.20;41.00;;;;;;457342;260;1175;-75
2021/05/17 03:14:11;;;;;;;;;;;21.20;40.90;;;;;;457466;260;1070;-75
2021/05/17 03:16:12;;;;;;;;;;;21.20;40.70;;;;;;457420;260;1060;-75
2021/05/17 03:18:14;;;;;;;;;;;21.20;41.00;;;;;;457427;260;983;-75
2021/05/17 03:20:15;;;;;;;;;;;21.20;41.00;;;;;;457442;260;958;-75
2021/05/17 03:22:16;;;;;;;;;;;21.20;40.80;;;;;;457427;260;1097;-75
2021/05/17 03:24:17;;;;;;;;;;;21.30;40.70;;;;;;457441;260;974;-75
2021/05/17 03:26:19;;;;;;;;;;;21.30;40.70;;;;;;457383;255;1213;-75
2021/05/17 03:28:20;;;;;;;;;;;21.30;40.70;;;;;;457410;260;1232;-75
2021/05/17 03:30:21;;;;;;;;;;;21.30;40.70;;;;;;457354;260;2201;-75
2021/05/17 03:32:24;;;;;;;;;;;21.20;40.80;;;;;;457335;260;1135;-75
2021/05/17 03:34:24;;;;;;;;;;;21.30;40.70;;;;;;457295;258;1364;-75
2021/05/17 03:36:25;;;;;;;;;;;21.30;40.60;;;;;;457335;260;1195;-75
2021/05/17 03:38:27;;;;;;;;;;;21.30;40.50;;;;;;457337;260;1018;-75
2021/05/17 03:40:28;;;;;;;;;;;21.30;40.50;;;;;;457409;260;987;-75
2021/05/17 03:42:29;;;;;;;;;;;21.30;40.50;;;;;;457362;260;1240;-75
2021/05/17 03:44:31;;;;;;;;;;;21.20;40.50;;;;;;457445;260;1073;-76
2021/05/17 03:46:32;;;;;;;;;;;21.20;40.50;;;;;;457508;260;1240;-75
2021/05/17 03:48:40;;;;;;;;;;;21.30;40.50;;;;;;457476;260;1150;-75
2021/05/17 03:50:34;;;;;;;;;;;21.30;40.50;;;;;;456928;260;2179;-75
2021/05/17 03:52:36;;;;;;;;;;;21.20;40.50;;;;;;457474;260;1187;-75
2021/05/17 03:54:37;;;;;;;;;;;21.30;40.40;;;;;;457373;260;1059;-75
2021/05/17 03:56:38;;;;;;;;;;;21.30;40.40;;;;;;457241;260;1307;-75
2021/05/17 03:58:40;;;;;;;;;;;21.30;40.40;;;;;;457328;260;1229;-75
2021/05/17 04:00:41;;;;;;;;;;;21.30;40.40;;;;;;457283;260;1258;-75
2021/05/17 04:02:43;;;;;;;;;;;21.30;40.40;;;;;;457245;260;1153;-75
2021/05/17 04:04:51;;;;;;;;;;;21.30;40.30;;;;;;457274;260;1412;-75
2021/05/17 04:06:49;;;;;;;;;;;21.30;40.30;;;;;;456940;260;1559;-75
2021/05/17 04:13:36;;;;;;;;;;;21.30;40.30;;;;;;450724;264;1232;-75
2021/05/17 04:15:37;;;;;;;;;;;21.40;40.10;;;;;;473142;251;1138;-75
2021/05/17 04:17:39;;;;;;;;;;;21.20;40.20;;;;;;473608;251;1120;-75
2021/05/17 04:19:40;;;;;;;;;;;21.30;40.20;;;;;;473627;251;1021;-75
2021/05/17 04:21:41;;;;;;;;;;;21.20;40.20;;;;;;473521;251;1056;-75
2021/05/17 04:23:43;;;;;;;;;;;21.20;40.20;;;;;;473604;251;1101;-75
2021/05/17 04:25:44;;;;;;;;;;;21.20;40.20;;;;;;473600;251;1126;-75
2021/05/17 04:27:45;;;;;;;;;;;21.20;40.20;;;;;;473573;251;1157;-75
2021/05/17 04:29:47;;;;;;;;;;;21.20;40.20;;;;;;473650;251;2161;-75
2021/05/17 04:31:48;;;;;;;;;;;21.20;40.20;;;;;;473587;251;1237;-75
2021/05/17 04:33:49;;;;;;;;;;;21.30;40.10;;;;;;473365;251;1071;-75
2021/05/17 04:35:50;;;;;;;;;;;21.20;40.10;;;;;;473591;251;1257;-75
2021/05/17 04:37:52;;;;;;;;;;;21.20;40.20;;;;;;473634;251;1081;-75
2021/05/17 04:39:53;;;;;;;;;;;21.20;40.20;;;;;;473546;251;1194;-76
2021/05/17 04:41:54;;;;;;;;;;;21.20;40.30;;;;;;473576;251;1182;-75
2021/05/17 04:43:56;;;;;;;;;;;21.20;40.20;;;;;;473537;248;1098;-75
2021/05/17 04:45:57;;;;;;;;;;;21.30;40.10;;;;;;473503;251;1047;-75
2021/05/17 04:47:59;;;;;;;;;;;21.30;40.10;;;;;;473479;251;1187;-75
2021/05/17 04:50:00;;;;;;;;;;;21.20;40.10;;;;;;473491;251;2205;-75
2021/05/17 04:52:01;;;;;;;;;;;21.20;40.10;;;;;;473381;251;1220;-75
2021/05/17 04:54:03;;;;;;;;;;;21.20;40.10;;;;;;473263;251;1247;-75
2021/05/17 04:56:04;;;;;;;;;;;21.30;40.10;;;;;;473362;251;1126;-75
2021/05/17 04:58:08;;;;;;;;;;;21.20;40.20;;;;;;473410;251;1194;-75
2021/05/17 05:00:07;;;;;;;;;;;21.30;40.00;;;;;;473285;251;1414;-75
2021/05/17 05:02:08;;;;;;;;;;;21.30;40.00;;;;;;473243;251;1156;-75
2021/05/17 05:04:09;;;;;;;;;;;21.30;39.90;;;;;;473480;251;1079;-75
2021/05/17 05:06:10;;;;;;;;;;;21.20;40.00;;;;;;473425;251;1161;-75
2021/05/17 05:08:12;;;;;;;;;;;21.30;40.00;;;;;;473487;251;1191;-75
2021/05/17 05:10:13;;;;;;;;;;;21.30;40.00;;;;;;473365;251;2185;-75
2021/05/17 05:12:14;;;;;;;;;;;21.20;39.90;;;;;;473393;251;1127;-75
2021/05/17 05:14:16;;;;;;;;;;;21.20;39.90;;;;;;473508;251;1153;-75
2021/05/17 05:16:17;;;;;;;;;;;21.30;39.70;;;;;;473358;251;1095;-75
2021/05/17 05:18:18;;;;;;;;;;;21.20;39.90;;;;;;473441;251;1080;-75
2021/05/17 05:20:19;;;;;;;;;;;21.30;39.90;;;;;;473392;251;1185;-75
2021/05/17 05:22:21;;;;;;;;;;;21.30;39.90;;;;;;473364;251;1109;-75
2021/05/17 05:24:22;;;;;;;;;;;21.30;39.70;;;;;;473360;251;1079;-75
2021/05/17 05:29:00;;;;;;;;;;;21.40;39.70;;;;;;472174;251;1217;-75
2021/05/17 05:30:56;;;;;;;;;;;21.30;39.70;;;;;;473032;251;2202;-75
2021/05/17 05:33:08;;;;;;;;;;;21.20;39.70;;;;;;473266;251;1488;-75
2021/05/17 05:34:57;;;;;;;;;;;21.30;39.70;;;;;;472770;251;1456;-75
2021/05/17 05:36:59;;;;;;;;;;;21.30;39.60;;;;;;473284;251;1054;-75
2021/05/17 05:39:00;;;;;;;;;;;21.30;39.60;;;;;;473429;251;1076;-75
2021/05/17 05:41:01;;;;;;;;;;;21.20;39.70;;;;;;473336;251;1228;-75
2021/05/17 05:43:03;;;;;;;;;;;21.20;39.80;;;;;;473338;251;1133;-75
2021/05/17 05:45:05;;;;;;;;;;;21.30;39.80;;;;;;473212;251;1194;-75
2021/05/17 05:47:06;;;;;;;;;;;21.30;39.70;;;;;;473220;249;1499;-75
2021/05/17 05:49:07;;;;;;;;;;;21.30;39.70;;;;;;473141;249;1440;-75
2021/05/17 05:51:08;;;;;;;;;;;21.20;40.00;;;;;;473063;251;2253;-75
2021/05/17 05:53:09;;;;;;;;;;;21.00;40.20;;;;;;473349;251;1055;-76
2021/05/17 05:55:11;;;;;;;;;;;20.90;40.40;;;;;;473036;251;1086;-74
2021/05/17 05:57:13;;;;;;;;;;;20.90;40.60;;;;;;473145;251;1446;-75
2021/05/17 05:59:13;;;;;;;;;;;20.80;40.70;;;;;;473063;251;1407;-75
2021/05/17 06:01:14;;;;;;;;;;;20.70;40.80;;;;;;473039;251;1401;-75
2021/05/17 06:03:16;;;;;;;;;;;20.70;40.90;;;;;;473210;251;1070;-75
2021/05/17 06:05:17;;;;;;;;;;;20.60;41.10;;;;;;473209;251;1040;-75
2021/05/17 06:07:18;;;;;;;;;;;20.60;41.10;;;;;;473082;251;1419;-75
2021/05/17 06:09:20;;;;;;;;;;;20.60;41.20;;;;;;473257;251;1117;-75
2021/05/17 06:11:21;;;;;;;;;;;20.60;41.20;;;;;;473125;251;2197;-75
2021/05/17 06:13:22;;;;;;;;;;;20.60;41.30;;;;;;473133;251;1064;-75
2021/05/17 06:15:23;;;;;;;;;;;20.50;41.40;;;;;;473017;249;1255;-75
2021/05/17 06:17:25;;;;;;;;;;;20.50;41.30;;;;;;473052;251;1157;-75
2021/05/17 06:19:26;;;;;;;;;;;20.60;41.40;;;;;;473234;251;1078;-75
2021/05/17 06:21:27;;;;;;;;;;;20.50;41.40;;;;;;473161;251;1290;-75
2021/05/17 06:23:29;;;;;;;;;;;20.50;41.50;;;;;;473197;251;1052;-75
2021/05/17 06:25:30;;;;;;;;;;;20.50;41.40;;;;;;473076;251;1149;-75
2021/05/17 06:27:31;;;;;;;;;;;20.50;41.60;;;;;;473360;251;1117;-75
2021/05/17 06:29:32;;;;;;;;;;;20.40;41.70;;;;;;473213;251;1276;-75
2021/05/17 06:31:34;;;;;;;;;;;20.50;41.70;;;;;;473139;251;2373;-75
2021/05/17 06:33:35;;;;;;;;;;;20.50;41.70;;;;;;473009;251;1077;-75
2021/05/17 06:35:40;;;;;;;;;;;20.50;41.70;;;;;;472942;248;1287;-75
2021/05/17 06:37:38;;;;;;;;;;;20.50;41.70;;;;;;472849;251;1743;-75
2021/05/17 06:39:39;;;;;;;;;;;20.40;41.80;;;;;;472970;251;1104;-75
2021/05/17 06:41:41;;;;;;;;;;;20.40;41.90;;;;;;472839;251;1201;-75
2021/05/17 06:43:42;;;;;;;;;;;20.40;41.90;;;;;;473069;251;1095;-75
2021/05/17 06:45:44;;;;;;;;;;;20.40;41.90;;;;;;473006;249;1198;-75
2021/05/17 06:47:44;;;;;;;;;;;20.40;41.90;;;;;;473058;252;1336;-75
2021/05/17 06:49:46;;;;;;;;;;;20.40;41.90;;;;;;473025;251;1120;-75
2021/05/17 06:51:48;;;;;;;;;;;20.40;42.00;;;;;;472827;251;2209;-75
2021/05/17 06:53:54;;;;;;;;;;;20.40;42.10;;;;;;472835;251;1106;-75
2021/05/17 06:56:01;;;;;;;;;;;20.40;42.00;;;;;;472484;248;1313;-75
2021/05/17 06:58:08;;;;;;;;;;;20.40;42.10;;;;;;472458;251;1574;-75
2021/05/17 07:00:07;;;;;;;;;;;20.40;42.10;;;;;;472890;251;1312;-75
2021/05/17 07:02:07;;;;;;;;;;;20.40;42.20;;;;;;472858;251;1310;-75
2021/05/17 07:04:10;;;;;;;;;;;20.40;42.20;;;;;;472846;251;1106;-75
2021/05/17 07:06:11;;;;;;;;;;;20.40;42.20;;;;;;473017;251;1421;-75
2021/05/17 07:12:50;;;;;;;;;;;20.40;42.30;;;;;;473033;251;1199;-75
2021/05/17 07:14:52;;;;;;;;;;;20.40;42.30;;;;;;472884;251;1228;-75
2021/05/17 07:16:53;;;;;;;;;;;20.50;42.30;;;;;;472782;251;1384;-75
2021/05/17 07:18:54;;;;;;;;;;;20.40;42.30;;;;;;472962;251;1096;-75
2021/05/17 07:25:34;;;;;;;;;;;20.40;42.30;;;;;;472998;248;1255;-75
2021/05/17 07:27:35;;;;;;;;;;;20.40;42.30;;;;;;472883;251;1268;-75
2021/05/17 07:29:38;;;;;;;;;;;20.40;42.20;;;;;;473346;251;1032;-75
2021/05/17 07:31:38;;;;;;;;;;;20.40;42.20;;;;;;472877;251;2194;-75
2021/05/17 07:33:39;;;;;;;;;;;20.40;42.10;;;;;;473141;251;1325;-75
2021/05/17 07:35:41;;;;;;;;;;;20.40;42.20;;;;;;472911;251;1195;-75
2021/05/17 07:37:42;;;;;;;;;;;20.40;42.20;;;;;;473104;251;1093;-75
2021/05/17 07:39:43;;;;;;;;;;;20.40;42.20;;;;;;472803;251;1116;-75
2021/05/17 07:41:45;;;;;;;;;;;20.40;42.30;;;;;;472724;251;1189;-75
2021/05/17 07:43:46;;;;;;;;;;;20.40;42.20;;;;;;472776;251;1132;-75
2021/05/17 07:45:47;;;;;;;;;;;20.40;42.20;;;;;;472786;251;1245;-75
2021/05/17 07:47:48;;;;;;;;;;;20.40;42.20;;;;;;472673;251;1086;-75
2021/05/17 07:49:53;;;;;;;;;;;20.40;42.20;;;;;;472480;251;1181;-75
2021/05/17 07:51:54;;;;;;;;;;;20.30;42.30;;;;;;472524;251;2192;-75
2021/05/17 07:53:55;;;;;;;;;;;20.20;42.60;;;;;;472757;251;1060;-75
2021/05/17 07:55:56;;;;;;;;;;;20.10;42.60;;;;;;472442;251;1309;-75
2021/05/17 07:57:58;;;;;;;;;;;20.10;42.70;;;;;;472701;251;1122;-75
2021/05/17 07:59:59;;;;;;;;;;;20.00;42.70;;;;;;473444;251;828;-75
2021/05/17 08:02:00;;;;;;;;;;;20.10;42.80;;;;;;473063;251;1312;-75
2021/05/17 08:04:02;;;;;;;;;;;20.00;42.70;;;;;;472738;251;1282;-75
2021/05/17 08:06:03;;;;;;;;;;;20.00;42.70;;;;;;472733;251;1358;-75
2021/05/17 08:08:04;;;;;;;;;;;20.00;42.70;;;;;;472941;251;1087;-75
2021/05/17 08:10:05;;;;;;;;;;;20.00;42.70;;;;;;472608;251;1251;-75
2021/05/17 08:12:07;;;;;;;;;;;20.00;42.70;;;;;;472612;251;2420;-75
2021/05/17 08:14:08;;;;;;;;;;;20.00;42.70;;;;;;472847;251;1082;-75
2021/05/17 08:16:10;;;;;;;;;;;20.00;42.60;;;;;;472898;251;1361;-75
2021/05/17 08:18:11;;;;;;;;;;;20.00;42.50;;;;;;472964;251;1040;-75
2021/05/17 08:20:12;;;;;;;;;;;20.00;42.50;;;;;;472736;251;1070;-75
2021/05/17 08:22:13;;;;;;;;;;;19.90;42.50;;;;;;472762;251;1115;-75
2021/05/17 08:24:14;;;;;;;;;;;20.00;42.60;;;;;;472861;251;1069;-75
2021/05/17 08:26:16;;;;;;;;;;;20.00;42.50;;;;;;472686;251;1139;-75
2021/05/17 08:28:17;;;;;;;;;;;20.00;42.50;;;;;;472875;251;1244;-75
2021/05/17 08:30:20;;;;;;;;;;;20.00;42.40;;;;;;472850;251;1062;-75
2021/05/17 08:32:19;;;;;;;;;;;20.00;42.40;;;;;;472977;252;2197;-75
2021/05/17 08:34:22;;;;;;;;;;;20.00;42.40;;;;;;472914;251;1074;-75
2021/05/17 08:36:22;;;;;;;;;;;20.00;42.50;;;;;;472820;251;1373;-75
2021/05/17 08:38:23;;;;;;;;;;;20.00;42.50;;;;;;473047;251;1109;-75
2021/05/17 08:40:25;;;;;;;;;;;20.00;42.50;;;;;;473028;251;1132;-75
2021/05/17 08:42:27;;;;;;;;;;;20.00;42.50;;;;;;472969;251;1097;-75
2021/05/17 08:44:28;;;;;;;;;;;20.00;42.50;;;;;;472800;251;1254;-75
2021/05/17 08:46:29;;;;;;;;;;;19.90;42.60;;;;;;472826;251;1238;-75
2021/05/17 08:48:30;;;;;;;;;;;20.00;42.40;;;;;;473514;251;1066;-75
2021/05/17 08:50:31;;;;;;;;;;;20.20;42.20;;;;;;472918;251;1120;-75
2021/05/17 08:52:33;;;;;;;;;;;20.30;42.00;;;;;;473023;251;2196;-75
2021/05/17 08:54:34;;;;;;;;;;;20.40;41.70;;;;;;472785;248;1302;-75
2021/05/17 08:56:35;;;;;;;;;;;20.40;41.50;;;;;;473190;251;1151;-75
2021/05/17 08:58:37;;;;;;;;;;;20.60;41.30;;;;;;472925;251;1208;-75
2021/05/17 09:00:38;;;;;;;;;;;20.60;41.20;;;;;;473789;251;1188;-76
2021/05/17 09:02:39;;;;;;;;;;;20.70;41.00;;;;;;473350;251;1363;-75
2021/05/17 09:04:40;;;;;;;;;;;20.70;40.90;;;;;;473046;251;1123;-75
2021/05/17 09:06:42;;;;;;;;;;;20.70;40.80;;;;;;473004;251;1166;-75
2021/05/17 09:08:43;;;;;;;;;;;20.70;40.80;;;;;;472988;251;1188;-75
2021/05/17 09:10:45;;;;;;;;;;;20.70;40.80;;;;;;472936;251;1222;-75
2021/05/17 09:12:45;;;;;;;;;;;20.70;40.70;;;;;;473215;251;2201;-75
2021/05/17 09:14:47;;;;;;;;;;;20.70;40.70;;;;;;473120;251;1218;-75
2021/05/17 09:16:48;;;;;;;;;;;20.80;40.60;;;;;;473011;251;1336;-75
2021/05/17 09:18:49;;;;;;;;;;;20.80;40.60;;;;;;472841;251;1047;-75
2021/05/17 09:20:51;;;;;;;;;;;20.80;40.50;;;;;;472912;251;1222;-75
2021/05/17 09:22:52;;;;;;;;;;;20.80;40.50;;;;;;473005;251;1334;-74
2021/05/17 09:24:53;;;;;;;;;;;20.70;40.60;;;;;;473001;251;1147;-75
2021/05/17 09:26:54;;;;;;;;;;;20.80;40.60;;;;;;472989;248;1182;-75
2021/05/17 09:28:56;;;;;;;;;;;20.80;40.50;;;;;;472980;251;1061;-75
2021/05/17 09:31:03;;;;;;;;;;;20.80;40.50;;;;;;472984;251;1289;-75
2021/05/17 09:32:59;;;;;;;;;;;20.70;40.50;;;;;;472677;251;2189;-75
2021/05/17 09:35:00;;;;;;;;;;;20.70;40.50;;;;;;472824;251;1020;-75
2021/05/17 09:37:01;;;;;;;;;;;20.70;40.40;;;;;;472895;251;1196;-75
2021/05/17 09:39:02;;;;;;;;;;;20.80;40.40;;;;;;472983;251;1434;-75
2021/05/17 09:41:04;;;;;;;;;;;20.80;40.30;;;;;;472960;251;1178;-75
2021/05/17 09:43:05;;;;;;;;;;;20.70;40.30;;;;;;472978;251;1151;-75
2021/05/17 09:45:06;;;;;;;;;;;20.80;40.30;;;;;;472710;251;1103;-75
2021/05/17 09:47:08;;;;;;;;;;;20.80;40.30;;;;;;472692;251;1474;-75
2021/05/17 09:49:09;;;;;;;;;;;20.90;40.20;;;;;;472965;251;1263;-75
2021/05/17 09:51:12;;;;;;;;;;;20.90;40.10;;;;;;473326;251;2196;-75
2021/05/17 09:53:12;;;;;;;;;;;20.90;40.20;;;;;;472655;251;1442;-75
2021/05/17 09:55:13;;;;;;;;;;;20.90;40.20;;;;;;472517;251;1085;-75
2021/05/17 09:57:14;;;;;;;;;;;20.80;40.10;;;;;;472689;251;1123;-75
2021/05/17 09:59:16;;;;;;;;;;;20.80;40.10;;;;;;472890;251;1072;-75
2021/05/17 10:01:17;;;;;;;;;;;20.90;40.10;;;;;;472831;251;1229;-75
2021/05/17 10:03:18;;;;;;;;;;;20.90;40.00;;;;;;472986;251;1247;-75
2021/05/17 10:05:19;;;;;;;;;;;20.90;40.00;;;;;;472895;251;1214;-75
2021/05/17 10:07:21;;;;;;;;;;;20.90;40.00;;;;;;472542;251;1175;-75
2021/05/17 10:09:23;;;;;;;;;;;20.90;40.00;;;;;;472450;251;1088;-75
2021/05/17 10:11:24;;;;;;;;;;;20.90;40.00;;;;;;472562;251;2200;-75
2021/05/17 10:13:25;;;;;;;;;;;20.80;40.00;;;;;;472783;251;1083;-74
2021/05/17 10:15:27;;;;;;;;;;;20.90;40.00;;;;;;472646;251;1240;-75
2021/05/17 10:17:28;;;;;;;;;;;21.00;39.70;;;;;;472708;251;1322;-75
2021/05/17 10:19:29;;;;;;;;;;;21.00;39.80;;;;;;472886;251;1132;-75
2021/05/17 10:21:30;;;;;;;;;;;20.90;39.80;;;;;;472931;251;1210;-75
2021/05/17 10:23:32;;;;;;;;;;;20.80;39.90;;;;;;472994;251;1038;-74
2021/05/17 10:25:35;;;;;;;;;;;20.90;39.90;;;;;;472897;251;1051;-75
2021/05/17 10:27:35;;;;;;;;;;;20.90;39.80;;;;;;473061;251;1483;-75
2021/05/17 10:29:36;;;;;;;;;;;20.90;39.80;;;;;;472960;251;1035;-75
2021/05/17 10:31:38;;;;;;;;;;;20.90;39.60;;;;;;472901;251;2205;-75
2021/05/17 10:33:39;;;;;;;;;;;20.90;39.70;;;;;;472789;251;1180;-75
2021/05/17 10:35:40;;;;;;;;;;;20.90;39.70;;;;;;472737;251;988;-75
2021/05/17 10:37:41;;;;;;;;;;;20.80;39.60;;;;;;472910;251;1093;-75
2021/05/17 10:39:45;;;;;;;;;;;20.90;39.80;;;;;;472924;251;1074;-75
2021/05/17 10:41:49;;;;;;;;;;;20.80;39.90;;;;;;472742;251;1306;-75
2021/05/17 10:43:45;;;;;;;;;;;20.80;39.80;;;;;;472643;251;1362;-75
2021/05/17 10:48:06;;;;;;;;;;;20.80;39.90;;;;;;472996;250;1167;-75
2021/05/17 10:50:07;;;;;;;;;;;20.80;39.80;;;;;;472825;251;1146;-75
2021/05/17 10:52:10;;;;;;;;;;;20.80;39.80;;;;;;472728;251;2197;-75
2021/05/17 10:54:10;;;;;;;;;;;20.80;39.70;;;;;;472752;251;1304;-75
2021/05/17 10:56:11;;;;;;;;;;;20.80;39.80;;;;;;472782;251;1159;-75
2021/05/17 11:00:21;;;;;;;;;;;20.80;39.70;;;;;;472943;251;1056;-75
2021/05/17 11:00:24;;;;;;;;;;;20.80;39.80;;;;;;471694;252;1077;-75
2021/05/17 11:02:26;;;;;;;;;;;20.80;39.80;;;;;;472802;251;1569;-75
2021/05/17 11:04:25;;;;;;;;;;;20.90;39.80;;;;;;472864;251;1647;-75
2021/05/17 11:06:27;;;;;;;;;;;20.90;39.70;;;;;;472890;251;1074;-75
2021/05/17 11:08:28;;;;;;;;;;;20.90;39.60;;;;;;472883;251;1108;-75
2021/05/17 11:10:29;;;;;;;;;;;20.90;39.70;;;;;;472741;251;1088;-75
2021/05/17 11:12:31;;;;;;;;;;;21.00;39.60;;;;;;472832;251;2134;-75
2021/05/17 11:14:32;;;;;;;;;;;20.90;39.60;;;;;;473047;251;1156;-75
2021/05/17 11:16:33;;;;;;;;;;;21.00;39.60;;;;;;472973;251;1308;-74
2021/05/17 11:18:35;;;;;;;;;;;21.00;39.40;;;;;;472970;251;1203;-74
2021/05/17 11:20:36;;;;;;;;;;;21.00;39.50;;;;;;472805;248;1502;-75
2021/05/17 11:22:37;;;;;;;;;;;21.00;39.50;;;;;;473034;251;1336;-74
2021/05/17 11:24:38;;;;;;;;;;;20.90;39.50;;;;;;473238;251;1189;-75
2021/05/17 11:26:40;;;;;;;;;;;20.90;39.50;;;;;;472987;251;1223;-74
2021/05/17 11:28:42;;;;;;;;;;;20.80;39.60;;;;;;473408;251;879;-75
2021/05/17 11:30:42;;;;;;;;;;;20.70;39.60;;;;;;473151;251;1439;-74
2021/05/17 11:32:43;;;;;;;;;;;20.80;39.60;;;;;;473670;251;2185;-75
2021/05/17 11:34:45;;;;;;;;;;;20.80;39.70;;;;;;473161;251;1080;-74
2021/05/17 11:36:47;;;;;;;;;;;20.80;39.70;;;;;;472969;251;1227;-74
2021/05/17 11:38:48;;;;;;;;;;;20.90;39.80;;;;;;472921;251;1334;-74
2021/05/17 11:40:50;;;;;;;;;;;20.80;40.00;;;;;;473045;251;1214;-74
2021/05/17 11:42:51;;;;;;;;;;;20.80;40.10;;;;;;473074;251;1142;-75
2021/05/17 11:44:55;;;;;;;;;;;20.80;40.10;;;;;;473046;251;1081;-74
2021/05/17 11:46:55;;;;;;;;;;;20.80;40.20;;;;;;472998;251;1302;-75
2021/05/17 11:48:56;;;;;;;;;;;20.90;40.30;;;;;;472857;251;1150;-74
2021/05/17 11:50:58;;;;;;;;;;;20.90;40.20;;;;;;472906;251;1286;-74
2021/05/17 11:52:59;;;;;;;;;;;20.90;40.20;;;;;;472759;251;2186;-74
2021/05/17 11:55:00;;;;;;;;;;;20.90;40.30;;;;;;472694;251;1134;-75
2021/05/17 11:57:02;;;;;;;;;;;21.00;40.30;;;;;;472914;251;1102;-74
2021/05/17 11:59:03;;;;;;;;;;;20.90;40.20;;;;;;472858;251;1117;-75
2021/05/17 12:01:04;;;;;;;;;;;20.90;40.30;;;;;;472862;251;1263;-75
2021/05/17 12:03:05;;;;;;;;;;;20.80;40.20;;;;;;472947;251;1093;-75
2021/05/17 12:05:07;;;;;;;;;;;20.90;40.10;;;;;;472901;251;1074;-75
2021/05/17 12:07:08;;;;;;;;;;;20.90;40.10;;;;;;472881;251;1069;-75
2021/05/17 12:09:09;;;;;;;;;;;20.90;40.00;;;;;;472809;251;1242;-74
2021/05/17 12:11:11;;;;;;;;;;;20.90;40.10;;;;;;472866;249;1309;-73
2021/05/17 12:13:16;;;;;;;;;;;21.00;40.00;;;;;;472841;251;2191;-75
2021/05/17 12:15:15;;;;;;;;;;;21.10;40.20;;;;;;472917;251;1950;-75